Arsenal, Pennsylvania
Current Conditions -  °F | °C
As of 12:53 PM on Saturday 25 Oct 2014 (Local Time) from KAGC Reporting Station
Broken Clouds Broken Clouds  
Wind Chill: 63°   Ceiling: 6000
Heat Index: 63°   Visibility: 10mi
Dew Point: 46°   Wind: 21mph
Humidity: 54%   Direction: 250°WSW
Pressure: 29.88"   Gusts: 25mph
Location:  40.4738°N, 79.952°W
Report Text: KAGC 251653Z 25018G22KT 10SM BKN060 17/08 A2988 RMK AO2 SLP121 T01720078
Loading
Personal Weather Stations






























Interactive Weather Map New forecast layout! Learn more

10-Day Weather Forecast

Advertisements
Track Severe Weather on mobile